Sun Valley, NV (89433)

4:17 AM PST on March 01, 2015 (GMT -0800)
Sun Valley | Change Station
CLOSE
Current Station
Personal Weather Station
Location: Sun Valley, NV
Elevation: 4770 ft
Nearby Weather Stations

Elev 4770 ft 39.60 °N, 119.78 °W | Updated 2 minutes ago

Overcast
Overcast
34.1 °F
Feels Like 27 °F
N
8.0
Wind Variable Wind from ENE
Gusts 9.0 mph

Today
High -- | Low -- °F
--% Chance of Precip.
Yesterday
High -- | Low -- °F
Precip. -- in
6:32 AM 5:51 PM
Waxing Gibbous, 84% visible
Pressure 29.97 in
Visibility 10.0 miles
Clouds Few 2300 ft
Mostly Cloudy 3100 ft
Overcast 3500 ft
Windchill 27 °F
Dew Point 27 °F
Humidity 74%
Rainfall 0.00 in
Snow Depth Not available.
UV 0 out of 12
Pollen .70 out of 12
Air Quality Not available.
Flu Activity Not available.
METAR KRTS 011155Z AUTO 35004KT 10SM FEW023 BKN031 OVC035 00/M03 A2997 RMK AO2

More Conditions Fewer Conditions

Pressure 29.97 in
Visibility 10.0 miles
Clouds Few 2300 ft
Mostly Cloudy 3100 ft
Overcast 3500 ft
Windchill 27 °F
Dew Point 27 °F
Humidity 74%
Rainfall 0.00 in
Snow Depth Not available.
UV 0 out of 12
Pollen .70 out of 12
Air Quality Not available.
Flu Activity Not available.
METAR KRTS 011155Z AUTO 35004KT 10SM FEW023 BKN031 OVC035 00/M03 A2997 RMK AO2

More Conditions Fewer Conditions

10-Day Weather Forecast

Almanac

Astronomy

Mar. 01, 2015 Rise Set
Actual Time
Civil Twilight
Nautical Twilight
Astronomical Twilight
Moon
Length of Visible Light
Length of Day
Tomorrow will be .
, % of the Moon is Illuminated

Today's Extremes

State Highs State Lows

Community

WunderPhotos

Upload Photos

1,801,365 photos uploaded!

WunderBlogs® & News

Nearby

Air Quality

  Air Quality AQ Index Pollutant
Not available.

Snow Depth

Station Depth Elevation

Earthquake Activity

City Distance Mag. Time & Date
Minimum magnitude displayed is 2.5.

Coastal Water Temperatures

Place Temperature

Nearby Weather Stations